Savana De La Mar, Dominican Republic
Current Conditions -  °F | °C
As of 5:00 PM on Thursday 27 Nov 2014 (Local Time) from MDCY Reporting Station
Broken Clouds Broken Clouds  
Wind Chill: 81°   Ceiling: 1800
Heat Index: 86°   Visibility: 6mi
Dew Point: 75°   Wind: 12mph
Humidity: 84%   Direction: 90°E
Pressure: 29.91"   Gusts: NA
Location:  19.05°N, 69.38°W
Report Text: MDCY 272100Z 09010KT 9999 BKN018 27/24 Q1013
Loading
Personal Weather Stations






























Interactive Weather Map New forecast layout! Learn more

10-Day Weather Forecast

Advertisements
Track Severe Weather on mobile